sensor_id;sensor_type;location;lat;lon;timestamp;P1;durP1;ratioP1;P2;durP2;ratioP2
75680;SDS011;64294;49.176;16.626;2024-03-02T00:01:37;35.67;;;22.00;;
75680;SDS011;64294;49.176;16.626;2024-03-02T00:04:05;35.22;;;20.33;;
75680;SDS011;64294;49.176;16.626;2024-03-02T00:06:32;36.45;;;21.23;;
75680;SDS011;64294;49.176;16.626;2024-03-02T00:08:58;37.88;;;21.58;;
75680;SDS011;64294;49.176;16.626;2024-03-02T00:11:23;35.30;;;21.45;;
75680;SDS011;64294;49.176;16.626;2024-03-02T00:13:49;35.28;;;21.83;;
75680;SDS011;64294;49.176;16.626;2024-03-02T00:16:17;36.80;;;22.27;;
75680;SDS011;64294;49.176;16.626;2024-03-02T00:18:43;33.53;;;21.10;;
75680;SDS011;64294;49.176;16.626;2024-03-02T00:21:09;36.65;;;22.13;;
75680;SDS011;64294;49.176;16.626;2024-03-02T00:23:34;34.65;;;21.35;;
75680;SDS011;64294;49.176;16.626;2024-03-02T00:26:00;34.72;;;20.23;;
75680;SDS011;64294;49.176;16.626;2024-03-02T00:28:27;36.20;;;21.13;;
75680;SDS011;64294;49.176;16.626;2024-03-02T00:33:18;38.60;;;21.63;;
75680;SDS011;64294;49.176;16.626;2024-03-02T00:35:47;29.88;;;19.98;;
75680;SDS011;64294;49.176;16.626;2024-03-02T00:38:14;37.70;;;22.25;;
75680;SDS011;64294;49.176;16.626;2024-03-02T00:40:40;41.05;;;21.27;;
75680;SDS011;64294;49.176;16.626;2024-03-02T00:43:06;38.28;;;20.63;;
75680;SDS011;64294;49.176;16.626;2024-03-02T00:45:39;34.13;;;20.85;;
75680;SDS011;64294;49.176;16.626;2024-03-02T00:48:04;35.70;;;20.85;;
75680;SDS011;64294;49.176;16.626;2024-03-02T00:50:29;33.10;;;19.45;;
75680;SDS011;64294;49.176;16.626;2024-03-02T00:52:55;33.63;;;20.70;;
75680;SDS011;64294;49.176;16.626;2024-03-02T00:55:20;33.90;;;20.73;;
75680;SDS011;64294;49.176;16.626;2024-03-02T00:57:45;33.53;;;20.25;;
75680;SDS011;64294;49.176;16.626;2024-03-02T01:00:10;33.27;;;19.13;;
75680;SDS011;64294;49.176;16.626;2024-03-02T01:02:40;36.88;;;20.30;;
75680;SDS011;64294;49.176;16.626;2024-03-02T01:05:05;33.40;;;18.93;;
75680;SDS011;64294;49.176;16.626;2024-03-02T01:07:30;33.50;;;20.80;;
75680;SDS011;64294;49.176;16.626;2024-03-02T01:09:55;31.87;;;19.77;;
75680;SDS011;64294;49.176;16.626;2024-03-02T01:12:21;30.53;;;18.47;;
75680;SDS011;64294;49.176;16.626;2024-03-02T01:14:46;38.97;;;20.45;;
75680;SDS011;64294;49.176;16.626;2024-03-02T01:17:14;36.47;;;20.70;;
75680;SDS011;64294;49.176;16.626;2024-03-02T01:19:41;33.95;;;19.63;;
75680;SDS011;64294;49.176;16.626;2024-03-02T01:22:06;34.00;;;21.13;;
75680;SDS011;64294;49.176;16.626;2024-03-02T01:24:31;32.33;;;19.53;;
75680;SDS011;64294;49.176;16.626;2024-03-02T01:26:57;38.70;;;20.90;;
75680;SDS011;64294;49.176;16.626;2024-03-02T01:29:22;33.30;;;19.92;;
75680;SDS011;64294;49.176;16.626;2024-03-02T01:31:47;35.93;;;20.03;;
75680;SDS011;64294;49.176;16.626;2024-03-02T01:34:12;35.90;;;19.58;;
75680;SDS011;64294;49.176;16.626;2024-03-02T01:36:38;31.38;;;17.90;;
75680;SDS011;64294;49.176;16.626;2024-03-02T01:39:03;31.53;;;18.30;;
75680;SDS011;64294;49.176;16.626;2024-03-02T01:41:28;35.00;;;19.67;;
75680;SDS011;64294;49.176;16.626;2024-03-02T01:43:53;35.90;;;19.47;;
75680;SDS011;64294;49.176;16.626;2024-03-02T01:46:19;32.97;;;19.00;;
75680;SDS011;64294;49.176;16.626;2024-03-02T01:48:44;33.10;;;20.20;;
75680;SDS011;64294;49.176;16.626;2024-03-02T01:51:10;34.57;;;19.20;;
75680;SDS011;64294;49.176;16.626;2024-03-02T01:53:35;33.28;;;20.10;;
75680;SDS011;64294;49.176;16.626;2024-03-02T01:56:01;34.72;;;19.45;;
75680;SDS011;64294;49.176;16.626;2024-03-02T01:58:26;33.95;;;20.05;;
75680;SDS011;64294;49.176;16.626;2024-03-02T02:00:52;35.30;;;20.00;;
75680;SDS011;64294;49.176;16.626;2024-03-02T02:03:17;33.43;;;19.60;;
75680;SDS011;64294;49.176;16.626;2024-03-02T02:05:42;31.73;;;18.50;;
75680;SDS011;64294;49.176;16.626;2024-03-02T02:08:08;36.55;;;19.95;;
75680;SDS011;64294;49.176;16.626;2024-03-02T02:10:33;31.17;;;18.70;;
75680;SDS011;64294;49.176;16.626;2024-03-02T02:12:58;37.30;;;20.20;;
75680;SDS011;64294;49.176;16.626;2024-03-02T02:17:52;35.60;;;19.15;;
75680;SDS011;64294;49.176;16.626;2024-03-02T02:20:17;32.13;;;19.27;;
75680;SDS011;64294;49.176;16.626;2024-03-02T02:22:56;35.05;;;19.20;;
75680;SDS011;64294;49.176;16.626;2024-03-02T02:25:22;34.10;;;19.27;;
75680;SDS011;64294;49.176;16.626;2024-03-02T02:27:47;38.15;;;19.63;;
75680;SDS011;64294;49.176;16.626;2024-03-02T02:30:12;32.03;;;18.77;;
75680;SDS011;64294;49.176;16.626;2024-03-02T02:32:37;36.47;;;19.98;;
75680;SDS011;64294;49.176;16.626;2024-03-02T02:35:03;38.63;;;19.93;;
75680;SDS011;64294;49.176;16.626;2024-03-02T02:37:28;32.08;;;19.17;;
75680;SDS011;64294;49.176;16.626;2024-03-02T02:39:53;31.03;;;18.37;;
75680;SDS011;64294;49.176;16.626;2024-03-02T02:42:19;33.50;;;19.63;;
75680;SDS011;64294;49.176;16.626;2024-03-02T02:44:44;31.67;;;18.52;;
75680;SDS011;64294;49.176;16.626;2024-03-02T02:47:09;32.20;;;19.07;;
75680;SDS011;64294;49.176;16.626;2024-03-02T02:49:34;36.33;;;18.63;;
75680;SDS011;64294;49.176;16.626;2024-03-02T02:51:59;35.77;;;19.40;;
75680;SDS011;64294;49.176;16.626;2024-03-02T02:54:25;34.20;;;18.52;;
75680;SDS011;64294;49.176;16.626;2024-03-02T02:56:50;34.07;;;18.33;;
75680;SDS011;64294;49.176;16.626;2024-03-02T02:59:16;34.60;;;19.67;;
75680;SDS011;64294;49.176;16.626;2024-03-02T03:01:41;33.83;;;20.30;;
75680;SDS011;64294;49.176;16.626;2024-03-02T03:04:06;36.10;;;19.33;;
75680;SDS011;64294;49.176;16.626;2024-03-02T03:06:31;36.37;;;20.23;;
75680;SDS011;64294;49.176;16.626;2024-03-02T03:08:57;33.65;;;19.02;;
75680;SDS011;64294;49.176;16.626;2024-03-02T03:11:22;35.92;;;19.55;;
75680;SDS011;64294;49.176;16.626;2024-03-02T03:13:49;31.50;;;18.65;;
75680;SDS011;64294;49.176;16.626;2024-03-02T03:16:15;33.27;;;19.70;;
75680;SDS011;64294;49.176;16.626;2024-03-02T03:18:40;37.67;;;20.50;;
75680;SDS011;64294;49.176;16.626;2024-03-02T03:21:05;36.33;;;19.33;;
75680;SDS011;64294;49.176;16.626;2024-03-02T03:23:30;38.77;;;20.77;;
75680;SDS011;64294;49.176;16.626;2024-03-02T03:25:55;35.53;;;19.70;;
75680;SDS011;64294;49.176;16.626;2024-03-02T03:28:21;33.90;;;19.50;;
75680;SDS011;64294;49.176;16.626;2024-03-02T03:30:46;31.60;;;19.30;;
75680;SDS011;64294;49.176;16.626;2024-03-02T03:33:11;34.90;;;19.60;;
75680;SDS011;64294;49.176;16.626;2024-03-02T03:35:36;34.80;;;19.23;;
75680;SDS011;64294;49.176;16.626;2024-03-02T03:38:02;33.97;;;19.58;;
75680;SDS011;64294;49.176;16.626;2024-03-02T03:40:28;33.60;;;20.13;;
75680;SDS011;64294;49.176;16.626;2024-03-02T03:42:53;37.33;;;19.80;;
75680;SDS011;64294;49.176;16.626;2024-03-02T03:45:18;38.55;;;20.27;;
75680;SDS011;64294;49.176;16.626;2024-03-02T03:47:44;34.00;;;20.60;;
75680;SDS011;64294;49.176;16.626;2024-03-02T03:50:10;37.95;;;20.58;;
75680;SDS011;64294;49.176;16.626;2024-03-02T03:52:35;37.17;;;20.80;;
75680;SDS011;64294;49.176;16.626;2024-03-02T03:55:00;33.97;;;20.08;;
75680;SDS011;64294;49.176;16.626;2024-03-02T03:57:26;37.22;;;20.67;;
75680;SDS011;64294;49.176;16.626;2024-03-02T03:59:51;38.92;;;21.15;;
75680;SDS011;64294;49.176;16.626;2024-03-02T04:02:17;41.10;;;21.60;;
75680;SDS011;64294;49.176;16.626;2024-03-02T04:04:42;36.97;;;20.23;;
75680;SDS011;64294;49.176;16.626;2024-03-02T04:07:08;39.10;;;20.77;;
75680;SDS011;64294;49.176;16.626;2024-03-02T04:09:33;37.43;;;21.30;;
75680;SDS011;64294;49.176;16.626;2024-03-02T04:11:59;38.80;;;20.25;;
75680;SDS011;64294;49.176;16.626;2024-03-02T04:14:24;37.00;;;20.63;;
75680;SDS011;64294;49.176;16.626;2024-03-02T04:16:49;37.70;;;20.77;;
75680;SDS011;64294;49.176;16.626;2024-03-02T04:19:14;37.27;;;21.30;;
75680;SDS011;64294;49.176;16.626;2024-03-02T04:21:39;36.87;;;20.03;;
75680;SDS011;64294;49.176;16.626;2024-03-02T04:24:05;39.45;;;20.40;;
75680;SDS011;64294;49.176;16.626;2024-03-02T04:26:30;37.43;;;21.23;;
75680;SDS011;64294;49.176;16.626;2024-03-02T04:28:55;37.97;;;20.23;;
75680;SDS011;64294;49.176;16.626;2024-03-02T04:31:20;38.13;;;20.80;;
75680;SDS011;64294;49.176;16.626;2024-03-02T04:33:46;37.38;;;21.60;;
75680;SDS011;64294;49.176;16.626;2024-03-02T04:36:12;36.38;;;20.52;;
75680;SDS011;64294;49.176;16.626;2024-03-02T04:38:41;35.03;;;19.92;;
75680;SDS011;64294;49.176;16.626;2024-03-02T04:41:06;39.55;;;21.42;;
75680;SDS011;64294;49.176;16.626;2024-03-02T04:43:32;39.15;;;20.67;;
75680;SDS011;64294;49.176;16.626;2024-03-02T04:45:57;41.30;;;21.20;;
75680;SDS011;64294;49.176;16.626;2024-03-02T04:48:23;41.08;;;20.70;;
75680;SDS011;64294;49.176;16.626;2024-03-02T04:50:48;34.90;;;19.23;;
75680;SDS011;64294;49.176;16.626;2024-03-02T04:53:13;34.43;;;20.10;;
75680;SDS011;64294;49.176;16.626;2024-03-02T04:55:39;32.30;;;19.70;;
75680;SDS011;64294;49.176;16.626;2024-03-02T04:58:04;37.33;;;20.70;;
75680;SDS011;64294;49.176;16.626;2024-03-02T05:00:29;31.53;;;19.33;;
75680;SDS011;64294;49.176;16.626;2024-03-02T05:02:54;43.47;;;20.27;;
75680;SDS011;64294;49.176;16.626;2024-03-02T05:05:19;40.07;;;20.43;;
75680;SDS011;64294;49.176;16.626;2024-03-02T05:07:45;32.67;;;19.43;;
75680;SDS011;64294;49.176;16.626;2024-03-02T05:10:10;33.70;;;19.48;;
75680;SDS011;64294;49.176;16.626;2024-03-02T05:12:39;32.75;;;18.75;;
75680;SDS011;64294;49.176;16.626;2024-03-02T05:15:10;41.03;;;20.15;;
75680;SDS011;64294;49.176;16.626;2024-03-02T05:17:36;36.38;;;19.70;;
75680;SDS011;64294;49.176;16.626;2024-03-02T05:20:02;35.92;;;20.30;;
75680;SDS011;64294;49.176;16.626;2024-03-02T05:22:27;33.33;;;19.83;;
75680;SDS011;64294;49.176;16.626;2024-03-02T05:24:52;32.10;;;18.47;;
75680;SDS011;64294;49.176;16.626;2024-03-02T05:27:17;38.10;;;20.50;;
75680;SDS011;64294;49.176;16.626;2024-03-02T05:29:43;37.37;;;19.37;;
75680;SDS011;64294;49.176;16.626;2024-03-02T05:32:08;38.33;;;19.77;;
75680;SDS011;64294;49.176;16.626;2024-03-02T05:34:36;33.83;;;19.83;;
75680;SDS011;64294;49.176;16.626;2024-03-02T05:37:01;35.42;;;20.33;;
75680;SDS011;64294;49.176;16.626;2024-03-02T05:39:26;36.20;;;19.67;;
75680;SDS011;64294;49.176;16.626;2024-03-02T05:41:52;36.30;;;19.23;;
75680;SDS011;64294;49.176;16.626;2024-03-02T05:44:17;39.42;;;20.98;;
75680;SDS011;64294;49.176;16.626;2024-03-02T05:46:43;36.45;;;20.20;;
75680;SDS011;64294;49.176;16.626;2024-03-02T05:49:08;36.60;;;19.98;;
75680;SDS011;64294;49.176;16.626;2024-03-02T05:51:34;35.58;;;19.70;;
75680;SDS011;64294;49.176;16.626;2024-03-02T05:54:00;36.38;;;20.10;;
75680;SDS011;64294;49.176;16.626;2024-03-02T05:56:25;36.97;;;20.20;;
75680;SDS011;64294;49.176;16.626;2024-03-02T05:58:50;37.30;;;20.80;;
75680;SDS011;64294;49.176;16.626;2024-03-02T06:04:11;40.07;;;19.33;;
75680;SDS011;64294;49.176;16.626;2024-03-02T06:06:36;36.70;;;20.05;;
75680;SDS011;64294;49.176;16.626;2024-03-02T06:09:02;38.92;;;20.00;;
75680;SDS011;64294;49.176;16.626;2024-03-02T06:11:33;34.55;;;19.70;;
75680;SDS011;64294;49.176;16.626;2024-03-02T06:13:59;36.13;;;19.33;;
75680;SDS011;64294;49.176;16.626;2024-03-02T06:16:24;34.93;;;20.23;;
75680;SDS011;64294;49.176;16.626;2024-03-02T06:18:49;35.67;;;19.30;;
75680;SDS011;64294;49.176;16.626;2024-03-02T06:21:14;34.17;;;20.43;;
75680;SDS011;64294;49.176;16.626;2024-03-02T06:23:39;33.30;;;20.00;;
75680;SDS011;64294;49.176;16.626;2024-03-02T06:26:05;35.17;;;19.93;;
75680;SDS011;64294;49.176;16.626;2024-03-02T06:28:30;43.07;;;23.43;;
75680;SDS011;64294;49.176;16.626;2024-03-02T06:30:55;96.22;;;44.38;;
75680;SDS011;64294;49.176;16.626;2024-03-02T06:33:21;39.70;;;21.60;;
75680;SDS011;64294;49.176;16.626;2024-03-02T06:35:46;41.23;;;22.50;;
75680;SDS011;64294;49.176;16.626;2024-03-02T06:38:11;46.25;;;24.05;;
75680;SDS011;64294;49.176;16.626;2024-03-02T06:40:36;40.80;;;24.23;;
75680;SDS011;64294;49.176;16.626;2024-03-02T06:43:05;42.70;;;24.20;;
75680;SDS011;64294;49.176;16.626;2024-03-02T06:45:30;51.23;;;25.97;;
75680;SDS011;64294;49.176;16.626;2024-03-02T06:47:55;49.08;;;25.38;;
75680;SDS011;64294;49.176;16.626;2024-03-02T06:50:21;41.33;;;24.52;;
75680;SDS011;64294;49.176;16.626;2024-03-02T06:52:46;40.28;;;23.90;;
75680;SDS011;64294;49.176;16.626;2024-03-02T06:55:11;44.07;;;23.67;;
75680;SDS011;64294;49.176;16.626;2024-03-02T06:57:37;63.35;;;22.38;;
75680;SDS011;64294;49.176;16.626;2024-03-02T07:00:03;44.17;;;20.77;;
75680;SDS011;64294;49.176;16.626;2024-03-02T07:02:30;40.33;;;22.13;;
75680;SDS011;64294;49.176;16.626;2024-03-02T07:04:55;36.87;;;20.60;;
75680;SDS011;64294;49.176;16.626;2024-03-02T07:07:20;36.83;;;21.08;;
75680;SDS011;64294;49.176;16.626;2024-03-02T07:09:46;43.20;;;22.00;;
75680;SDS011;64294;49.176;16.626;2024-03-02T07:12:11;39.80;;;22.98;;
75680;SDS011;64294;49.176;16.626;2024-03-02T07:14:36;42.20;;;23.70;;
75680;SDS011;64294;49.176;16.626;2024-03-02T07:17:20;43.83;;;23.85;;
75680;SDS011;64294;49.176;16.626;2024-03-02T07:19:45;41.37;;;24.53;;
75680;SDS011;64294;49.176;16.626;2024-03-02T07:22:11;43.80;;;24.05;;
75680;SDS011;64294;49.176;16.626;2024-03-02T07:24:43;43.22;;;23.42;;
75680;SDS011;64294;49.176;16.626;2024-03-02T07:27:12;43.92;;;22.58;;
75680;SDS011;64294;49.176;16.626;2024-03-02T07:29:38;37.15;;;21.23;;
75680;SDS011;64294;49.176;16.626;2024-03-02T07:32:03;33.47;;;19.80;;
75680;SDS011;64294;49.176;16.626;2024-03-02T07:34:29;37.25;;;19.60;;
75680;SDS011;64294;49.176;16.626;2024-03-02T07:36:54;34.53;;;19.30;;
75680;SDS011;64294;49.176;16.626;2024-03-02T07:39:20;33.67;;;18.80;;
75680;SDS011;64294;49.176;16.626;2024-03-02T07:41:45;34.13;;;18.80;;
75680;SDS011;64294;49.176;16.626;2024-03-02T07:44:11;33.05;;;18.02;;
75680;SDS011;64294;49.176;16.626;2024-03-02T07:46:39;30.63;;;18.38;;
75680;SDS011;64294;49.176;16.626;2024-03-02T07:49:04;30.27;;;17.73;;
75680;SDS011;64294;49.176;16.626;2024-03-02T07:51:30;30.05;;;17.55;;
75680;SDS011;64294;49.176;16.626;2024-03-02T07:53:55;31.23;;;17.60;;
75680;SDS011;64294;49.176;16.626;2024-03-02T07:56:20;28.40;;;17.03;;
75680;SDS011;64294;49.176;16.626;2024-03-02T07:58:48;31.15;;;17.05;;
75680;SDS011;64294;49.176;16.626;2024-03-02T08:01:14;28.48;;;16.60;;
75680;SDS011;64294;49.176;16.626;2024-03-02T08:03:39;30.15;;;16.10;;
75680;SDS011;64294;49.176;16.626;2024-03-02T08:06:04;28.70;;;16.67;;
75680;SDS011;64294;49.176;16.626;2024-03-02T08:08:29;27.43;;;16.43;;
75680;SDS011;64294;49.176;16.626;2024-03-02T08:10:55;27.53;;;16.63;;
75680;SDS011;64294;49.176;16.626;2024-03-02T08:13:20;28.47;;;16.10;;
75680;SDS011;64294;49.176;16.626;2024-03-02T08:15:45;27.60;;;16.50;;
75680;SDS011;64294;49.176;16.626;2024-03-02T08:18:11;26.27;;;15.77;;
75680;SDS011;64294;49.176;16.626;2024-03-02T08:20:37;24.23;;;15.70;;
75680;SDS011;64294;49.176;16.626;2024-03-02T08:23:02;30.67;;;15.40;;
75680;SDS011;64294;49.176;16.626;2024-03-02T08:25:27;28.57;;;15.77;;
75680;SDS011;64294;49.176;16.626;2024-03-02T08:27:52;23.80;;;15.83;;
75680;SDS011;64294;49.176;16.626;2024-03-02T08:30:17;30.67;;;15.83;;
75680;SDS011;64294;49.176;16.626;2024-03-02T08:32:43;28.95;;;16.67;;
75680;SDS011;64294;49.176;16.626;2024-03-02T08:35:10;26.45;;;16.10;;
75680;SDS011;64294;49.176;16.626;2024-03-02T08:37:35;27.70;;;16.40;;
75680;SDS011;64294;49.176;16.626;2024-03-02T08:40:01;27.52;;;16.23;;
75680;SDS011;64294;49.176;16.626;2024-03-02T08:42:28;25.98;;;15.77;;
75680;SDS011;64294;49.176;16.626;2024-03-02T08:44:54;31.00;;;16.27;;
75680;SDS011;64294;49.176;16.626;2024-03-02T08:47:19;26.23;;;15.33;;
75680;SDS011;64294;49.176;16.626;2024-03-02T08:49:44;26.53;;;16.60;;
75680;SDS011;64294;49.176;16.626;2024-03-02T08:52:09;26.35;;;16.67;;
75680;SDS011;64294;49.176;16.626;2024-03-02T08:54:35;29.57;;;17.23;;
75680;SDS011;64294;49.176;16.626;2024-03-02T08:57:00;27.85;;;16.77;;
75680;SDS011;64294;49.176;16.626;2024-03-02T08:59:25;30.07;;;16.70;;
75680;SDS011;64294;49.176;16.626;2024-03-02T09:01:52;28.95;;;17.15;;
75680;SDS011;64294;49.176;16.626;2024-03-02T09:04:18;28.52;;;16.58;;
75680;SDS011;64294;49.176;16.626;2024-03-02T09:06:43;30.08;;;16.55;;
75680;SDS011;64294;49.176;16.626;2024-03-02T09:09:08;25.37;;;17.00;;
75680;SDS011;64294;49.176;16.626;2024-03-02T09:11:33;30.30;;;16.37;;
75680;SDS011;64294;49.176;16.626;2024-03-02T09:13:59;29.77;;;16.30;;
75680;SDS011;64294;49.176;16.626;2024-03-02T09:16:24;30.77;;;17.07;;
75680;SDS011;64294;49.176;16.626;2024-03-02T09:18:55;27.63;;;16.63;;
75680;SDS011;64294;49.176;16.626;2024-03-02T09:21:20;31.83;;;16.53;;
75680;SDS011;64294;49.176;16.626;2024-03-02T09:23:45;29.50;;;16.60;;
75680;SDS011;64294;49.176;16.626;2024-03-02T09:26:13;29.80;;;17.05;;
75680;SDS011;64294;49.176;16.626;2024-03-02T09:28:42;27.95;;;16.77;;
75680;SDS011;64294;49.176;16.626;2024-03-02T09:31:07;27.65;;;16.48;;
75680;SDS011;64294;49.176;16.626;2024-03-02T09:33:32;30.93;;;18.60;;
75680;SDS011;64294;49.176;16.626;2024-03-02T09:35:57;30.83;;;17.10;;
75680;SDS011;64294;49.176;16.626;2024-03-02T09:38:23;28.95;;;17.02;;
75680;SDS011;64294;49.176;16.626;2024-03-02T09:40:48;32.50;;;17.47;;
75680;SDS011;64294;49.176;16.626;2024-03-02T09:43:16;29.20;;;16.40;;
75680;SDS011;64294;49.176;16.626;2024-03-02T09:45:42;26.35;;;15.80;;
75680;SDS011;64294;49.176;16.626;2024-03-02T09:48:08;28.20;;;16.67;;
75680;SDS011;64294;49.176;16.626;2024-03-02T09:50:33;28.95;;;17.55;;
75680;SDS011;64294;49.176;16.626;2024-03-02T09:52:58;30.70;;;18.08;;
75680;SDS011;64294;49.176;16.626;2024-03-02T09:55:24;30.80;;;18.50;;
75680;SDS011;64294;49.176;16.626;2024-03-02T09:57:50;28.33;;;17.00;;
75680;SDS011;64294;49.176;16.626;2024-03-02T10:00:15;28.77;;;18.20;;
75680;SDS011;64294;49.176;16.626;2024-03-02T10:02:41;30.95;;;17.80;;
75680;SDS011;64294;49.176;16.626;2024-03-02T10:05:07;33.47;;;18.98;;
75680;SDS011;64294;49.176;16.626;2024-03-02T10:07:32;29.58;;;17.73;;
75680;SDS011;64294;49.176;16.626;2024-03-02T10:09:58;31.30;;;17.40;;
75680;SDS011;64294;49.176;16.626;2024-03-02T10:12:24;30.05;;;17.92;;
75680;SDS011;64294;49.176;16.626;2024-03-02T10:14:49;33.30;;;16.60;;
75680;SDS011;64294;49.176;16.626;2024-03-02T10:17:17;33.28;;;18.00;;
75680;SDS011;64294;49.176;16.626;2024-03-02T10:19:42;28.92;;;16.58;;
75680;SDS011;64294;49.176;16.626;2024-03-02T10:22:08;29.53;;;16.17;;
75680;SDS011;64294;49.176;16.626;2024-03-02T10:24:37;30.30;;;17.63;;
75680;SDS011;64294;49.176;16.626;2024-03-02T10:27:16;28.77;;;16.70;;
75680;SDS011;64294;49.176;16.626;2024-03-02T10:29:41;35.28;;;17.70;;
75680;SDS011;64294;49.176;16.626;2024-03-02T10:32:10;31.55;;;16.80;;
75680;SDS011;64294;49.176;16.626;2024-03-02T10:34:36;32.20;;;18.13;;
75680;SDS011;64294;49.176;16.626;2024-03-02T10:37:01;32.13;;;18.83;;
75680;SDS011;64294;49.176;16.626;2024-03-02T10:39:27;31.15;;;18.48;;
75680;SDS011;64294;49.176;16.626;2024-03-02T10:41:53;26.90;;;17.15;;
75680;SDS011;64294;49.176;16.626;2024-03-02T10:44:19;33.92;;;18.30;;
75680;SDS011;64294;49.176;16.626;2024-03-02T10:46:45;32.55;;;18.77;;
75680;SDS011;64294;49.176;16.626;2024-03-02T10:49:11;37.75;;;19.50;;
75680;SDS011;64294;49.176;16.626;2024-03-02T10:51:36;46.20;;;19.85;;
75680;SDS011;64294;49.176;16.626;2024-03-02T10:54:02;32.67;;;18.65;;
75680;SDS011;64294;49.176;16.626;2024-03-02T10:56:32;33.67;;;19.05;;
75680;SDS011;64294;49.176;16.626;2024-03-02T10:59:17;37.83;;;20.20;;
75680;SDS011;64294;49.176;16.626;2024-03-02T11:01:45;36.45;;;19.35;;
75680;SDS011;64294;49.176;16.626;2024-03-02T11:04:12;38.33;;;20.83;;
75680;SDS011;64294;49.176;16.626;2024-03-02T11:06:37;39.42;;;20.65;;
75680;SDS011;64294;49.176;16.626;2024-03-02T11:09:06;36.00;;;21.45;;
75680;SDS011;64294;49.176;16.626;2024-03-02T11:11:35;39.05;;;20.63;;
75680;SDS011;64294;49.176;16.626;2024-03-02T11:14:01;37.58;;;21.55;;
75680;SDS011;64294;49.176;16.626;2024-03-02T11:19:01;37.25;;;22.50;;
75680;SDS011;64294;49.176;16.626;2024-03-02T11:21:26;39.53;;;21.48;;
75680;SDS011;64294;49.176;16.626;2024-03-02T11:23:52;38.25;;;21.00;;
75680;SDS011;64294;49.176;16.626;2024-03-02T11:26:17;40.07;;;22.47;;
75680;SDS011;64294;49.176;16.626;2024-03-02T11:28:43;39.97;;;21.00;;
75680;SDS011;64294;49.176;16.626;2024-03-02T11:31:09;42.13;;;21.47;;
75680;SDS011;64294;49.176;16.626;2024-03-02T11:33:34;35.30;;;20.90;;
75680;SDS011;64294;49.176;16.626;2024-03-02T11:35:59;41.63;;;21.03;;
75680;SDS011;64294;49.176;16.626;2024-03-02T11:38:27;40.40;;;20.98;;
75680;SDS011;64294;49.176;16.626;2024-03-02T11:40:52;37.67;;;21.65;;
75680;SDS011;64294;49.176;16.626;2024-03-02T11:43:18;35.22;;;20.55;;
75680;SDS011;64294;49.176;16.626;2024-03-02T11:45:44;33.90;;;20.30;;
75680;SDS011;64294;49.176;16.626;2024-03-02T11:48:11;33.00;;;20.08;;
75680;SDS011;64294;49.176;16.626;2024-03-02T11:50:41;33.58;;;19.58;;
75680;SDS011;64294;49.176;16.626;2024-03-02T11:53:07;33.17;;;18.80;;
75680;SDS011;64294;49.176;16.626;2024-03-02T11:55:37;29.45;;;18.27;;
75680;SDS011;64294;49.176;16.626;2024-03-02T11:58:05;30.55;;;18.40;;
75680;SDS011;64294;49.176;16.626;2024-03-02T12:00:30;26.77;;;17.30;;
75680;SDS011;64294;49.176;16.626;2024-03-02T12:03:02;28.08;;;17.80;;
75680;SDS011;64294;49.176;16.626;2024-03-02T12:05:28;27.13;;;16.05;;
75680;SDS011;64294;49.176;16.626;2024-03-02T12:07:55;27.73;;;16.52;;
75680;SDS011;64294;49.176;16.626;2024-03-02T12:10:21;27.88;;;17.15;;
75680;SDS011;64294;49.176;16.626;2024-03-02T12:12:46;29.73;;;17.50;;
75680;SDS011;64294;49.176;16.626;2024-03-02T12:15:11;36.10;;;17.40;;
75680;SDS011;64294;49.176;16.626;2024-03-02T12:17:36;31.10;;;18.00;;
75680;SDS011;64294;49.176;16.626;2024-03-02T12:20:04;27.52;;;17.55;;
75680;SDS011;64294;49.176;16.626;2024-03-02T12:22:29;35.60;;;18.23;;
75680;SDS011;64294;49.176;16.626;2024-03-02T12:24:54;30.67;;;18.10;;
75680;SDS011;64294;49.176;16.626;2024-03-02T12:27:19;32.87;;;19.27;;
75680;SDS011;64294;49.176;16.626;2024-03-02T12:29:46;30.20;;;18.75;;
75680;SDS011;64294;49.176;16.626;2024-03-02T12:32:11;32.30;;;18.92;;
75680;SDS011;64294;49.176;16.626;2024-03-02T12:34:38;31.17;;;19.40;;
75680;SDS011;64294;49.176;16.626;2024-03-02T12:37:03;32.30;;;19.60;;
75680;SDS011;64294;49.176;16.626;2024-03-02T12:39:28;33.38;;;20.58;;
75680;SDS011;64294;49.176;16.626;2024-03-02T12:41:55;33.80;;;21.50;;
75680;SDS011;64294;49.176;16.626;2024-03-02T12:44:20;34.60;;;20.13;;
75680;SDS011;64294;49.176;16.626;2024-03-02T12:46:46;31.10;;;19.48;;
75680;SDS011;64294;49.176;16.626;2024-03-02T12:49:12;33.80;;;20.33;;
75680;SDS011;64294;49.176;16.626;2024-03-02T12:51:38;33.38;;;20.05;;
75680;SDS011;64294;49.176;16.626;2024-03-02T12:54:05;35.47;;;20.52;;
75680;SDS011;64294;49.176;16.626;2024-03-02T12:56:31;33.22;;;20.48;;
75680;SDS011;64294;49.176;16.626;2024-03-02T12:58:56;36.22;;;20.73;;
75680;SDS011;64294;49.176;16.626;2024-03-02T13:01:22;31.40;;;18.52;;
75680;SDS011;64294;49.176;16.626;2024-03-02T13:03:48;35.58;;;20.08;;
75680;SDS011;64294;49.176;16.626;2024-03-02T13:06:16;28.13;;;17.70;;
75680;SDS011;64294;49.176;16.626;2024-03-02T13:08:41;29.27;;;16.35;;
75680;SDS011;64294;49.176;16.626;2024-03-02T13:11:07;30.70;;;17.70;;
75680;SDS011;64294;49.176;16.626;2024-03-02T13:13:32;29.70;;;17.30;;
75680;SDS011;64294;49.176;16.626;2024-03-02T13:15:57;25.92;;;15.55;;
75680;SDS011;64294;49.176;16.626;2024-03-02T13:18:23;26.83;;;16.43;;
75680;SDS011;64294;49.176;16.626;2024-03-02T13:20:48;28.63;;;16.67;;
75680;SDS011;64294;49.176;16.626;2024-03-02T13:23:13;29.35;;;17.10;;
75680;SDS011;64294;49.176;16.626;2024-03-02T13:25:39;26.20;;;15.60;;
75680;SDS011;64294;49.176;16.626;2024-03-02T13:28:04;27.80;;;16.45;;
75680;SDS011;64294;49.176;16.626;2024-03-02T13:30:30;25.58;;;16.08;;
75680;SDS011;64294;49.176;16.626;2024-03-02T13:32:55;27.97;;;16.07;;
75680;SDS011;64294;49.176;16.626;2024-03-02T13:35:20;26.85;;;15.80;;
75680;SDS011;64294;49.176;16.626;2024-03-02T13:37:45;30.97;;;17.60;;
75680;SDS011;64294;49.176;16.626;2024-03-02T13:40:10;27.00;;;15.97;;
75680;SDS011;64294;49.176;16.626;2024-03-02T13:42:41;26.92;;;16.65;;
75680;SDS011;64294;49.176;16.626;2024-03-02T13:45:07;27.23;;;18.20;;
75680;SDS011;64294;49.176;16.626;2024-03-02T13:47:32;29.67;;;16.38;;
75680;SDS011;64294;49.176;16.626;2024-03-02T13:49:58;27.05;;;16.10;;
75680;SDS011;64294;49.176;16.626;2024-03-02T13:52:23;27.15;;;17.00;;
75680;SDS011;64294;49.176;16.626;2024-03-02T13:54:50;28.48;;;16.75;;
75680;SDS011;64294;49.176;16.626;2024-03-02T13:57:17;29.38;;;17.17;;
75680;SDS011;64294;49.176;16.626;2024-03-02T13:59:44;23.45;;;15.40;;
75680;SDS011;64294;49.176;16.626;2024-03-02T14:02:10;26.15;;;16.05;;
75680;SDS011;64294;49.176;16.626;2024-03-02T14:04:36;31.33;;;17.10;;
75680;SDS011;64294;49.176;16.626;2024-03-02T14:07:01;28.73;;;16.23;;
75680;SDS011;64294;49.176;16.626;2024-03-02T14:09:27;23.45;;;14.85;;
75680;SDS011;64294;49.176;16.626;2024-03-02T14:11:53;26.58;;;15.60;;